• Join FlightAware (Why Join?)
  • Login
  • US Flag 
03:40PM EDT


 

Airport Tracker/Info


-or-


 

Live Flight TrackerFlight Track Log ✈ ACA854 ✈ 15-Jul-2013 ✈ CYVR - CYHZ

Flight Track Log - Related Links

Times and Time Zones

All times are in EDT time to prevent confusion due to time zone crossing. See the ACA854 flight status page for this flight to view local times or setup timezone preferences in your user account.

Time Position Orientation Groundspeed Altitude Reporting Facility
EDT Latitude Longitude Course Direction KTS MPH feet Rate Location/Type
10:05PM 49.1890 -123.1960 280° West 184 212 100  Level FlightAware
10:05PM 49.1930 -123.2420 278° West 191 220 1,500 2,280 Climbing FlightAware
10:06PM 49.1910 -123.2760 265° West 198 228 2,400 2,040 Climbing FlightAware
10:06PM 49.1880 -123.3120 263° West 214 246 3,200 1,560 Climbing FlightAware
10:07PM 49.1780 -123.3390 240° Southwest 243 280 3,600 960 Climbing FlightAware
10:07PM 49.1690 -123.3490 216° Southwest 258 297 3,700 2,040 Climbing FlightAware
10:07PM 49.1200 -123.3400 173° South 273 314 5,300 2,580 Climbing FlightAware
10:08PM 49.1050 -123.3110 128° Southeast 268 308 6,300 2,760 Climbing FlightAware
10:08PM 49.0980 -123.2660 103° East 267 307 7,400 2,580 Climbing FlightAware
10:09PM 49.0920 -123.2090 99° East 279 321 8,700 2,580 Climbing FlightAware
10:09PM 49.0870 -123.1610 99° East 286 329 9,800 2,160 Climbing FlightAware
10:10PM 49.0780 -123.0780 99° East 314 361 11,100 1,740 Climbing FlightAware
10:10PM 49.0715 -122.9880 96° East 349 402 12,100 1,620 Climbing FlightAware ADS-B
10:11PM 49.0720 -122.9090 89° East 378 435 13,000 2,220 Climbing FlightAware ADS-B
10:12PM 49.0740 -122.7500 89° East 401 461 15,400 2,400 Climbing FlightAware
10:12PM 49.0758 -122.6680 88° East 415 478 16,500 2,460 Climbing FlightAware ADS-B
10:13PM 49.0830 -122.5020 86° East 427 491 18,900 2,340 Climbing FlightAware
10:14PM 49.0920 -122.3780 84° East 444 511 20,300 2,160 Climbing FlightAware
10:14PM 49.1011 -122.2640 83° East 453 521 21,700 2,040 Climbing FlightAware ADS-B
10:15PM 49.1106 -122.1360 83° East 463 533 22,900 1,860 Climbing FlightAware ADS-B
10:16PM 49.1186 -122.0360 83° East 476 548 23,900 1,800 Climbing FlightAware ADS-B
10:17PM 49.1329 -121.8620 83° East 489 563 25,400 1,800 Climbing FlightAware ADS-B
10:17PM 49.1419 -121.7530 83° East 497 572 26,400 1,740 Climbing FlightAware ADS-B
10:18PM 49.1509 -121.6490 82° East 504 580 27,200 1,620 Climbing FlightAware ADS-B
10:18PM 49.1621 -121.5210 82° East 513 590 28,200 1,500 Climbing FlightAware ADS-B
10:19PM 49.1720 -121.4100 82° East 521 600 28,900 1,380 Climbing FlightAware ADS-B
10:19PM 49.1852 -121.2620 82° East 528 608 29,900 1,740 Climbing FlightAware ADS-B
10:20PM 49.1961 -121.1430 82° East 526 605 31,000 1,920 Climbing FlightAware ADS-B
10:20PM 49.2085 -121.0810 73° East 528 608 31,500 1,320 Climbing FlightAware ADS-B
10:21PM 49.2490 -120.9500 65° Northeast 533 613 32,300 1,320 Climbing FlightAware
10:21PM 49.2567 -120.9300 59° Northeast 528 608 32,500 1,080 Climbing FlightAware ADS-B
10:21PM 49.2952 -120.8290 60° Northeast 533 613 33,000 480 Climbing FlightAware ADS-B
10:22PM 49.3334 -120.7280 60° Northeast 533 613 33,000  Level FlightAware ADS-B
10:23PM 49.3990 -120.5500 60° Northeast 533 613 33,000  Level FlightAware
10:24PM 49.4460 -120.4210 61° Northeast 533 613 33,000  Level FlightAware
10:24PM 49.4930 -120.2880 61° Northeast 533 613 33,000  Level FlightAware
10:24PM 49.5163 -120.2240 61° Northeast 534 615 33,000  Level FlightAware ADS-B
10:26PM 49.6000 -119.9870 61° Northeast 533 613 33,000  Level FlightAware
10:27PM 49.6590 -119.8200 61° Northeast 533 613 33,000  Level FlightAware
10:27PM 49.7060 -119.6870 61° Northeast 533 613 33,000  Level FlightAware
10:28PM 49.7530 -119.5510 62° Northeast 533 613 33,000  Level FlightAware
10:28PM 49.7940 -119.4340 61° Northeast 531 611 33,000  Level FlightAware
10:29PM 49.8440 -119.2890 62° Northeast 531 611 33,000  Level FlightAware
10:30PM 49.8890 -119.1560 62° Northeast 530 610 33,000  Level FlightAware
10:31PM 49.9430 -118.9980 62° Northeast 530 610 33,000  Level FlightAware
10:31PM 49.9850 -118.8760 62° Northeast 531 611 33,000  Level FlightAware
10:32PM 50.0530 -118.6730 62° Northeast 530 610 33,000  Level FlightAware
10:33PM 50.0980 -118.5390 62° Northeast 530 610 33,000  Level FlightAware
10:33PM 50.1390 -118.4150 63° Northeast 530 610 33,000  Level FlightAware
10:34PM 50.1910 -118.2610 62° Northeast 529 609 33,000  Level FlightAware
10:35PM 50.2310 -118.1390 63° Northeast 530 610 33,000  Level FlightAware
10:36PM 50.2760 -118.0020 63° Northeast 529 609 33,000  Level FlightAware
10:36PM 50.3180 -117.8720 63° Northeast 530 610 33,000  Level FlightAware
10:37PM 50.3630 -117.7330 63° Northeast 530 610 33,000  Level FlightAware
10:38PM 50.4130 -117.5800 63° Northeast 531 611 33,000  Level FlightAware
10:38PM 50.4510 -117.4620 63° Northeast 531 611 33,000  Level FlightAware
10:39PM 50.5030 -117.2970 64° Northeast 529 609 33,000  Level FlightAware
10:40PM 50.5400 -117.1810 63° Northeast 530 610 33,000  Level FlightAware
10:40PM 50.5910 -117.0190 64° Northeast 530 610 33,000  Level FlightAware
10:41PM 50.6400 -116.8630 64° Northeast 530 610 33,000  Level FlightAware
10:42PM 50.6840 -116.7220 64° Northeast 530 610 33,000  Level FlightAware
10:42PM 50.7320 -116.5670 64° Northeast 528 608 33,000  Level FlightAware
10:43PM 50.7750 -116.4270 64° Northeast 526 605 33,000  Level FlightAware
10:44PM 50.8190 -116.2850 64° Northeast 529 609 33,000  Level FlightAware
10:45PM 50.8660 -116.1300 64° Northeast 530 610 33,000  Level FlightAware
10:45PM 50.9140 -115.9710 64° Northeast 529 609 33,000  Level FlightAware
10:46PM 50.9560 -115.8310 64° Northeast 530 610 33,000  Level FlightAware
10:47PM 50.9980 -115.6900 65° Northeast 530 610 33,000  Level FlightAware
10:47PM 51.0340 -115.5690 65° Northeast 531 611 33,000  Level FlightAware
10:48PM 51.0760 -115.4250 65° Northeast 531 611 33,000  Level FlightAware
10:49PM 51.1230 -115.2680 64° Northeast 532 612 33,000  Level FlightAware
10:49PM 51.1590 -115.1410 66° East 532 612 33,000  Level FlightAware
10:50PM 51.2000 -115.0010 65° Northeast 532 612 33,000  Level FlightAware
10:51PM 51.2470 -114.8390 65° Northeast 531 611 33,000  Level FlightAware
10:51PM 51.2880 -114.6940 66° East 531 611 33,000  Level FlightAware
10:52PM 51.3340 -114.5330 65° Northeast 533 613 33,000  Level FlightAware
10:53PM 51.3750 -114.3880 66° East 535 616 33,000  Level FlightAware
10:53PM 51.4160 -114.2430 66° East 535 616 33,000  Level FlightAware
10:54PM 51.4520 -114.1150 66° East 535 616 33,000  Level FlightAware
10:55PM 51.4970 -113.9520 66° East 536 617 33,000  Level FlightAware
10:55PM 51.5370 -113.8080 66° East 535 616 33,000  Level FlightAware
10:56PM 51.5720 -113.6780 67° East 535 616 33,000  Level FlightAware
10:57PM 51.6120 -113.5330 66° East 536 617 33,000  Level FlightAware
10:57PM 51.6570 -113.3660 66° East 536 617 33,000  Level FlightAware
10:58PM 51.6960 -113.2220 66° East 538 619 33,000 300 Level FlightAware
10:59PM 51.7400 -113.0550 67° East 538 619 33,500 960 Climbing FlightAware
11:00PM 51.7790 -112.9070 67° East 536 617 34,400 960 Climbing FlightAware
11:00PM 51.8190 -112.7560 67° East 548 631 34,800 420 Climbing FlightAware
11:01PM 51.8580 -112.6080 67° East 549 632 35,000 120 Climbing FlightAware
11:01PM 51.8960 -112.4640 67° East 550 633 35,000  Level FlightAware
11:02PM 51.9370 -112.3050 67° East 552 635 35,000  Level FlightAware
11:03PM 51.9760 -112.1520 67° East 554 638 35,000  Level FlightAware
11:03PM 52.0100 -112.0160 68° East 554 638 35,000  Level FlightAware
11:04PM 52.0530 -111.8490 67° East 553 636 35,000  Level FlightAware
11:05PM 52.0840 -111.7320 67° East 553 636 35,000  Level FlightAware
11:05PM 52.1260 -111.5580 68° East 552 635 35,000  Level FlightAware
11:06PM 52.1680 -111.3880 68° East 549 632 35,000  Level FlightAware
11:07PM 52.2030 -111.2450 68° East 549 632 35,000  Level FlightAware
11:07PM 52.2320 -111.1280 68° East 549 632 35,000  Level FlightAware
11:08PM 52.2710 -110.9710 68° East 549 632 35,000  Level FlightAware
11:09PM 52.3000 -110.8530 68° East 549 632 35,000  Level FlightAware
11:10PM 52.3400 -110.6920 68° East 549 632 35,000  Level FlightAware
11:10PM 52.3690 -110.5740 68° East 549 632 35,000  Level FlightAware
11:11PM 52.4000 -110.4500 68° East 549 632 35,000  Level FlightAware
11:12PM 52.4290 -110.3280 69° East 549 632 35,000  Level FlightAware
11:12PM 52.4680 -110.1710 68° East 549 632 35,000  Level FlightAware
11:13PM 52.4970 -110.0520 68° East 549 632 35,000  Level FlightAware
11:14PM 52.5360 -109.8940 68° East 549 632 35,000  Level FlightAware
11:14PM 52.5650 -109.7760 68° East 549 632 35,000  Level FlightAware
11:15PM 52.5950 -109.6540 68° East 549 632 35,000  Level FlightAware
11:16PM 52.6350 -109.4920 68° East 549 632 35,000  Level FlightAware
11:17PM 52.8500 -109.1167 68° East 530 610 35,000  Level Edmonton Center
11:18PM 52.9500 -108.9000 52° Northeast 540 621 35,000  Level Edmonton Center
11:19PM 53.0167 -108.6833 63° Northeast 530 610 35,000  Level Edmonton Center
11:20PM 53.1167 -108.4833 50° Northeast 530 610 35,000  Level Edmonton Center
11:21PM 53.1833 -108.2667 63° Northeast 530 610 35,000  Level Edmonton Center
11:22PM 53.2667 -108.0833 53° Northeast 530 610 35,000  Level Edmonton Center
11:23PM 53.3500 -107.8500 59° Northeast 530 610 35,000  Level Edmonton Center
11:24PM 53.4333 -107.6333 57° Northeast 530 610 35,000  Level Edmonton Center
11:25PM 53.5167 -107.4333 55° Northeast 530 610 35,000  Level Edmonton Center
11:26PM 53.6000 -107.2167 57° Northeast 530 610 35,000  Level Edmonton Center
11:27PM 53.6667 -106.9833 64° Northeast 530 610 35,000  Level Edmonton Center
11:28PM 53.7500 -106.8000 52° Northeast 530 610 35,000  Level Edmonton Center
11:29PM 53.8500 -106.5667 54° Northeast 530 610 35,000  Level Edmonton Center
11:30PM 53.9167 -106.3667 60° Northeast 530 610 35,000  Level Edmonton Center
11:31PM 54.0000 -106.1500 57° Northeast 530 610 35,000  Level Edmonton Center
11:32PM 54.0667 -105.9167 64° Northeast 530 610 35,000  Level Edmonton Center
11:33PM 54.1500 -105.7167 55° Northeast 540 621 35,000  Level Edmonton Center
11:34PM 54.2333 -105.4833 59° Northeast 540 621 35,000  Level Edmonton Center
11:35PM 54.3167 -105.2500 58° Northeast 540 621 35,000  Level Edmonton Center
11:36PM 54.4000 -105.0167 58° Northeast 540 621 35,000  Level Edmonton Center
11:37PM 54.4667 -104.8167 60° Northeast 540 621 35,000  Level Edmonton Center
11:38PM 54.5500 -104.5833 58° Northeast 540 621 35,000  Level Edmonton Center
11:39PM 54.6333 -104.3500 58° Northeast 540 621 35,000  Level Edmonton Center
11:40PM 54.7000 -104.1500 60° Northeast 540 621 35,000  Level Edmonton Center
11:41PM 54.7833 -103.9000 60° Northeast 540 621 35,000  Level Edmonton Center
11:42PM 54.8500 -103.6667 64° Northeast 540 621 35,000  Level Edmonton Center
11:43PM 54.9333 -103.4333 58° Northeast 540 621 35,000  Level Edmonton Center
11:44PM 55.0167 -103.2167 56° Northeast 540 621 35,000  Level Edmonton Center
11:45PM 55.0667 -102.9833 69° East 550 633 35,000  Level Edmonton Center
11:46PM 55.1500 -102.7333 60° Northeast 540 621 35,000  Level Edmonton Center
11:47PM 55.2167 -102.5333 60° Northeast 540 621 35,000  Level Edmonton Center
11:48PM 55.3000 -102.2500 63° Northeast 540 621 35,000  Level Edmonton Center
11:49PM 55.3833 -102.0333 56° Northeast 530 610 35,000  Level Edmonton Center
11:50PM 55.4333 -101.8167 68° East 530 610 35,000  Level Edmonton Center
11:51PM 55.5167 -101.5833 58° Northeast 520 598 35,000  Level Edmonton Center
11:52PM 55.5833 -101.3667 61° Northeast 530 610 35,000  Level Edmonton Center
11:53PM 55.6500 -101.1167 65° Northeast 520 598 35,000  Level Edmonton Center
11:54PM 55.7167 -100.9000 61° Northeast 520 598 35,000  Level Edmonton Center
11:55PM 55.8000 -100.6500 59° Northeast 530 610 35,000  Level Edmonton Center
11:56PM 55.8667 -100.4333 61° Northeast 540 621 35,000  Level Edmonton Center
11:57PM 55.9667 -100.2333 48° Northeast 540 621 35,000  Level Edmonton Center
11:58PM 56.0667 -99.9833 54° Northeast 540 621 35,000  Level Edmonton Center
11:59PM 56.1500 -99.7500 57° Northeast 550 633 35,000  Level Edmonton Center
12:00AM 56.2167 -99.5000 64° Northeast 560 644 35,000  Level Edmonton Center
12:01AM 56.3000 -99.2500 59° Northeast 560 644 35,000  Level Edmonton Center
12:02AM 56.3667 -98.9833 66° East 560 644 35,000  Level Edmonton Center
12:03AM 56.4333 -98.7667 61° Northeast 560 644 35,000  Level Edmonton Center
12:04AM 56.5167 -98.5000 60° Northeast 560 644 35,000  Level Edmonton Center
12:05AM 56.5833 -98.2333 65° Northeast 570 656 35,000  Level Edmonton Center
12:06AM 56.6500 -97.9833 64° Northeast 570 656 35,000  Level Edmonton Center
12:07AM 56.7167 -97.7167 65° Northeast 570 656 35,000  Level Edmonton Center
12:08AM 56.7833 -97.4167 68° East 580 667 35,000  Level Edmonton Center
12:09AM 56.8667 -97.1667 59° Northeast 580 667 35,000  Level Edmonton Center
12:10AM 56.9500 -96.9000 60° Northeast 590 679 35,000  Level Edmonton Center
12:11AM 57.0167 -96.6333 65° Northeast 590 679 35,000  Level Edmonton Center
12:12AM 57.0833 -96.3333 68° East 590 679 35,000  Level Edmonton Center
12:13AM 57.1500 -96.0667 65° Northeast 590 679 35,000  Level Edmonton Center
12:14AM 57.2167 -95.7833 66° East 590 679 35,000  Level Edmonton Center
12:15AM 57.2833 -95.4833 68° East 600 690 35,000  Level Edmonton Center
12:16AM 57.3500 -95.2167 65° Northeast 600 690 35,000  Level Edmonton Center
12:17AM 57.4333 -94.9167 63° Northeast 600 690 35,000  Level Edmonton Center
12:18AM 57.5000 -94.6333 66° East 600 690 35,000  Level Edmonton Center
12:19AM 57.5500 -94.3667 71° East 590 679 35,000  Level Edmonton Center
12:20AM 57.6333 -94.0500 64° Northeast 600 690 35,000  Level Edmonton Center
12:21AM 57.7000 -93.7833 65° Northeast 600 690 35,000  Level Edmonton Center
12:22AM 57.7500 -93.5000 72° East 600 690 35,000  Level Edmonton Center
12:23AM 57.8167 -93.2167 66° East 590 679 35,000  Level Edmonton Center
12:24AM 57.8833 -92.9000 68° East 600 690 35,000  Level Edmonton Center
12:25AM 57.9333 -92.6000 72° East 600 690 35,000  Level Edmonton Center
12:26AM 58.0167 -92.3167 61° Northeast 600 690 35,000  Level Edmonton Center
12:27AM 58.0667 -92.0333 71° East 600 690 35,000  Level Edmonton Center
12:28AM 58.1333 -91.7167 68° East 590 679 35,000  Level Edmonton Center
12:29AM 58.2000 -91.4333 66° East 590 679 35,000  Level Edmonton Center
12:30AM 58.2500 -91.1167 73° East 600 690 35,000  Level Edmonton Center
12:31AM 58.3167 -90.8167 67° East 600 690 35,000  Level Edmonton Center
12:32AM 58.3667 -90.5000 73° East 590 679 35,000  Level Edmonton Center
12:33AM 58.4167 -90.2167 71° East 590 679 35,000  Level Edmonton Center
12:34AM 58.4833 -89.9333 66° East 590 679 35,000  Level Edmonton Center
12:35AM 58.5333 -89.6333 72° East 590 679 35,000  Level Edmonton Center
12:36AM 58.5667 -89.3167 78° East 580 667 35,000  Level Edmonton Center
12:37AM 58.6000 -89.0000 78° East 580 667 35,000  Level Edmonton Center
12:38AM 58.6500 -88.7167 71° East 580 667 35,000  Level Edmonton Center
12:39AM 58.6833 -88.4000 78° East 580 667 35,000  Level Edmonton Center
12:40AM 58.7333 -88.1000 72° East 570 656 35,000  Level Edmonton Center
12:41AM 58.7500 -87.7833 84° East 570 656 35,000  Level Edmonton Center
12:42AM 58.8000 -87.5000 71° East 560 644 35,000  Level Edmonton Center
12:43AM 58.8333 -87.2167 77° East 560 644 35,000  Level Edmonton Center
12:44AM 58.8667 -86.9167 78° East 560 644 35,000  Level Edmonton Center
12:45AM 58.9000 -86.6000 78° East 560 644 35,000  Level Edmonton Center
12:46AM 58.9333 -86.3167 77° East 560 644 35,000  Level Edmonton Center
12:47AM 58.9667 -86.0167 78° East 560 644 35,000  Level Edmonton Center
12:48AM 59.0000 -85.7167 78° East 550 633 35,000  Level Edmonton Center
12:49AM 59.0167 -85.4333 83° East 550 633 35,000  Level Edmonton Center
12:50AM 59.0667 -85.1333 72° East 550 633 35,000  Level Edmonton Center
12:51AM 59.0833 -84.8500 83° East 550 633 35,000  Level Edmonton Center
12:52AM 59.1167 -84.5667 77° East 550 633 35,000  Level Edmonton Center
12:53AM 59.1500 -84.2667 78° East 540 621 35,000  Level Edmonton Center
12:54AM 59.1667 -83.9667 84° East 550 633 35,000  Level Edmonton Center
12:55AM 59.2000 -83.6833 77° East 540 621 35,000  Level Edmonton Center
12:56AM 59.2167 -83.3833 84° East 540 621 35,000  Level Edmonton Center
12:57AM 59.2500 -83.0833 78° East 540 621 35,000  Level Edmonton Center
12:58AM 59.2667 -82.8000 83° East 530 610 35,000  Level Edmonton Center
12:59AM 59.3000 -82.5333 76° East 530 610 35,000  Level Edmonton Center
01:00AM 59.3167 -82.2333 84° East 530 610 35,000  Level Edmonton Center
01:01AM 59.3333 -81.9500 83° East 530 610 35,000  Level Edmonton Center
01:02AM 59.3500 -81.6500 84° East 530 610 35,000  Level Edmonton Center
01:03AM 59.3833 -81.3500 78° East 530 610 35,000  Level Edmonton Center
01:04AM 59.4000 -81.0833 83° East 530 610 35,000  Level Edmonton Center
01:05AM 59.4167 -80.8000 83° East 540 621 35,000  Level Edmonton Center
01:06AM 59.4333 -80.5000 84° East 540 621 35,000  Level Edmonton Center
01:07AM 59.4667 -80.2000 78° East 550 633 35,000  Level Edmonton Center
01:08AM 59.4667 -79.9000 90° East 550 633 35,000  Level Edmonton Center
01:09AM 59.5000 -79.6000 78° East 550 633 35,000  Level Edmonton Center
01:10AM 59.5333 -79.2833 78° East 530 610 35,000  Level Edmonton Center
01:11AM 59.5500 -79.0167 83° East 530 610 35,000  Level Edmonton Center
01:12AM 59.5667 -78.7167 84° East 520 598 35,000  Level Edmonton Center
01:13AM 59.5833 -78.4500 83° East 520 598 35,000  Level Edmonton Center
01:14AM 59.6167 -78.1667 77° East 520 598 35,000  Level Edmonton Center
01:15AM 59.6333 -77.9000 83° East 520 598 35,000  Level Edmonton Center
01:16AM 59.6500 -77.6000 84° East 520 598 35,000  Level Edmonton Center
01:17AM 59.6667 -77.3333 83° East 520 598 35,000  Level Edmonton Center
01:18AM 59.7000 -77.0500 77° East 510 587 35,000  Level Edmonton Center
01:19AM 59.7000 -76.7500 90° East 510 587 35,000  Level Edmonton Center
01:20AM 59.7333 -76.4833 76° East 510 587 35,000  Level Edmonton Center
01:21AM 59.7333 -76.1833 90° East 510 587 35,000  Level Edmonton Center
01:22AM 59.7500 -75.9500 82° East 510 587 35,000  Level Edmonton Center
01:23AM 59.7833 -75.6667 77° East 510 587 35,000  Level Edmonton Center
01:24AM 59.8000 -75.3500 84° East 510 587 35,000  Level Edmonton Center
01:25AM 59.8000 -75.0500 90° East 510 587 35,000  Level Edmonton Center
01:26AM 59.8167 -74.7667 83° East 510 587 35,000  Level Edmonton Center
01:27AM 59.8333 -74.5000 83° East 510 587 35,000  Level Edmonton Center
01:28AM 59.8500 -74.2167 83° East 510 587 35,000  Level Edmonton Center
01:29AM 59.8667 -73.9500 83° East 510 587 35,000  Level Edmonton Center
01:30AM 59.8667 -73.6500 90° East 510 587 35,000  Level Edmonton Center
01:31AM 59.8833 -73.3833 83° East 510 587 35,000  Level Edmonton Center
01:32AM 59.8833 -73.1333 90° East 510 587 35,000  Level Edmonton Center
01:33AM 59.9500 -72.9000 60° Northeast 510 587 35,000  Level Montreal Center
01:34AM 59.9500 -72.6000 90° East 500 575 35,000  Level Montreal Center
01:35AM 59.9667 -72.3333 83° East 500 575 35,000  Level Montreal Center
01:36AM 59.9833 -72.0667 83° East 500 575 35,000  Level Montreal Center
01:37AM 59.9833 -71.7667 90° East 500 575 35,100 180 Climbing Montreal Center
01:38AM 60.0000 -71.5000 83° East 500 575 35,400 300 Climbing Montreal Center
01:39AM 60.0000 -71.2167 90° East 500 575 35,700 300 Climbing Montreal Center
01:40AM 60.0000 -70.9500 90° East 500 575 36,000 120 Climbing Montreal Center
01:41AM 60.0167 -70.6500 84° East 500 575 36,000  Level Montreal Center
01:42AM 60.0000 -70.3833 97° East 500 575 36,000  Level Montreal Center
01:44AM 60.0167 -69.9167 86° East 510 587 36,000  Level Gander Center
01:45AM 60.0500 -69.6500 76° East 500 575 36,000  Level Gander Center
01:46AM 60.0833 -69.4000 75° East 500 575 36,000  Level Gander Center
01:47AM 60.1167 -69.1000 77° East 510 587 36,000  Level Gander Center
01:48AM 60.1333 -68.8333 83° East 500 575 36,000  Level Gander Center
01:49AM 60.1667 -68.5833 75° East 500 575 36,000  Level Gander Center
01:50AM 60.1833 -68.3167 83° East 510 587 36,000  Level Gander Center
01:51AM 60.2000 -68.0167 83° East 500 575 36,000  Level Gander Center
01:52AM 60.2333 -67.7167 77° East 490 564 36,000  Level Gander Center
01:53AM 60.2667 -67.4500 76° East 500 575 36,000  Level Gander Center
01:54AM 60.2833 -67.1833 83° East 500 575 36,000  Level Gander Center
01:55AM 60.3000 -66.9167 83° East 500 575 36,000  Level Gander Center
01:56AM 60.3333 -66.6333 77° East 500 575 36,000  Level Gander Center
01:57AM 60.3500 -66.3667 83° East 500 575 36,000  Level Gander Center
01:58AM 60.3667 -66.1000 83° East 500 575 36,000  Level Gander Center
01:59AM 60.4000 -65.8333 76° East 500 575 36,000  Level Gander Center
02:00AM 60.4167 -65.5667 83° East 500 575 36,000  Level Gander Center
02:01AM 60.4500 -65.3000 76° East 500 575 36,000  Level Gander Center
02:02AM 60.4500 -64.9833 90° East 490 564 36,000  Level Gander Center
02:03AM 60.4667 -64.7167 83° East 490 564 36,000  Level Gander Center
02:04AM 60.5000 -64.4500 76° East 490 564 36,000  Level Gander Center
02:05AM 60.5000 -64.1833 90° East 500 575 36,000  Level Gander Center
02:06AM 60.5333 -63.8833 77° East 490 564 36,000  Level Gander Center
02:07AM 60.5500 -63.6167 83° East 490 564 36,000  Level Gander Center
02:08AM 60.5667 -63.3500 83° East 490 564 36,000  Level Gander Center
02:09AM 60.5667 -63.0667 90° East 490 564 36,000  Level Gander Center
02:10AM 60.5833 -62.8000 83° East 490 564 36,000  Level Gander Center
02:11AM 60.6000 -62.5333 83° East 490 564 36,000  Level Gander Center
02:12AM 60.5333 -62.3000 120° Southeast 490 564 36,000  Level Gander Center
02:13AM 60.4167 -62.1500 148° Southeast 500 575 36,000  Level Gander Center
02:14AM 60.2667 -62.1500 180° South 500 575 36,000  Level Gander Center
02:15AM 60.1333 -62.1500 180° South 510 587 36,000  Level Gander Center
02:16AM 59.9833 -62.1500 180° South 510 587 36,000  Level Gander Center
02:17AM 59.8500 -62.1500 180° South 510 587 36,000  Level Gander Center
02:18AM 59.7000 -62.1333 177° South 520 598 36,000  Level Gander Center
02:19AM 59.5500 -62.1333 180° South 520 598 36,000  Level Gander Center
02:20AM 59.4167 -62.1667 187° South 510 587 36,000  Level Gander Center
02:21AM 59.2667 -62.2000 186° South 510 587 36,000  Level Gander Center
02:22AM 59.1333 -62.1833 176° South 510 587 36,000  Level Gander Center
02:23AM 58.9833 -62.2167 187° South 520 598 36,000  Level Gander Center
02:24AM 58.8500 -62.2167 180° South 520 598 36,000  Level Gander Center
02:25AM 58.7000 -62.2500 187° South 510 587 36,000  Level Gander Center
02:26AM 58.5667 -62.2667 184° South 510 587 36,000  Level Gander Center
02:27AM 58.4167 -62.2667 180° South 510 587 36,000  Level Gander Center
02:28AM 58.2833 -62.3000 187° South 510 587 36,000  Level Gander Center
02:29AM 58.1500 -62.3167 184° South 510 587 36,000  Level Gander Center
02:30AM 58.0000 -62.3167 180° South 510 587 36,000  Level Gander Center
02:31AM 57.8500 -62.3500 187° South 520 598 36,000  Level Gander Center
02:32AM 57.7000 -62.3500 180° South 510 587 36,000  Level Gander Center
02:33AM 57.5667 -62.3667 184° South 510 587 36,000  Level Gander Center
02:34AM 57.4167 -62.4000 187° South 510 587 36,000  Level Gander Center
02:35AM 57.2833 -62.4000 180° South 510 587 36,000  Level Gander Center
02:36AM 57.1333 -62.4167 183° South 520 598 36,000  Level Gander Center
02:37AM 57.0000 -62.4167 180° South 510 587 36,000  Level Gander Center
02:38AM 56.8667 -62.4500 188° South 510 587 36,000  Level Gander Center
02:40AM 56.6000 -62.4667 182° South 530 610 36,000  Level Moncton Center
02:41AM 56.4500 -62.5000 187° South 510 587 36,000  Level Moncton Center
02:42AM 56.3167 -62.5000 180° South 500 575 36,000  Level Moncton Center
02:43AM 56.1833 -62.5167 184° South 510 587 36,000  Level Moncton Center
02:44AM 56.0333 -62.5167 180° South 510 587 36,000  Level Moncton Center
02:45AM 55.9000 -62.5500 188° South 510 587 36,000  Level Moncton Center
02:46AM 55.7500 -62.5667 184° South 510 587 36,000  Level Moncton Center
02:47AM 55.6167 -62.5667 180° South 510 587 36,000  Level Moncton Center
02:48AM 55.4667 -62.5667 180° South 510 587 36,000  Level Moncton Center
02:50AM 55.1333 -62.5667 180° South 510 587 36,000  Level Montreal Center
02:51AM 55.0167 -62.6167 194° South 510 587 36,000  Level Gander Center
02:52AM 54.8667 -62.6500 187° South 510 587 36,000  Level Gander Center
02:53AM 54.7333 -62.6500 180° South 510 587 36,000  Level Gander Center
02:54AM 54.5667 -62.6667 183° South 510 587 36,000  Level Gander Center
02:55AM 54.4333 -62.6833 184° South 510 587 36,000  Level Gander Center
02:56AM 54.2833 -62.6833 180° South 510 587 36,000  Level Gander Center
02:57AM 54.1500 -62.7167 188° South 510 587 36,000  Level Gander Center
02:58AM 54.0000 -62.7333 184° South 510 587 36,000  Level Gander Center
02:59AM 53.8667 -62.7333 180° South 510 587 36,000  Level Gander Center
03:00AM 53.7333 -62.7500 184° South 510 587 36,000  Level Gander Center
03:01AM 53.5833 -62.7500 180° South 510 587 36,000  Level Gander Center
03:02AM 53.4333 -62.7667 184° South 510 587 36,000  Level Gander Center
03:03AM 53.3000 -62.8000 188° South 510 587 36,000  Level Gander Center
03:04AM 53.1667 -62.7833 176° South 510 587 36,000  Level Gander Center
03:05AM 53.0167 -62.8167 188° South 510 587 36,000  Level Gander Center
03:06AM 52.8833 -62.8000 176° South 500 575 36,000  Level Gander Center
03:07AM 52.7500 -62.8333 189° South 500 575 36,000  Level Gander Center
03:08AM 52.6167 -62.8500 184° South 500 575 36,000  Level Gander Center
03:09AM 52.5000 -62.8667 185° South 510 587 36,000  Level Moncton Center
03:10AM 52.3500 -62.8667 180° South 510 587 36,000  Level Moncton Center
03:11AM 52.2167 -62.8667 180° South 510 587 36,000  Level Moncton Center
03:12AM 52.0833 -62.8667 180° South 510 587 36,000  Level Moncton Center
03:13AM 51.9333 -62.9000 188° South 510 587 36,000  Level Moncton Center
03:14AM 51.7833 -62.9167 184° South 510 587 36,000  Level Moncton Center
03:15AM 51.6333 -62.9167 180° South 510 587 36,000  Level Moncton Center
03:16AM 51.5000 -62.9167 180° South 510 587 36,000  Level Moncton Center
03:17AM 51.3500 -62.9167 180° South 500 575 36,000  Level Moncton Center
03:18AM 51.2167 -62.9500 189° South 510 587 36,000  Level Moncton Center
03:19AM 51.0667 -62.9667 184° South 510 587 36,000  Level Moncton Center
03:20AM 50.9333 -62.9667 180° South 510 587 36,000  Level Moncton Center
03:21AM 50.7833 -62.9667 180° South 500 575 36,000  Level Moncton Center
03:22AM 50.6500 -62.9667 180° South 500 575 36,000  Level Moncton Center
03:23AM 50.5167 -63.0000 189° South 500 575 36,000  Level Moncton Center
03:24AM 50.3833 -63.0000 180° South 490 564 36,000  Level Moncton Center
03:25AM 50.2333 -63.0167 184° South 500 575 36,000  Level Moncton Center
03:26AM 50.1000 -63.0167 180° South 500 575 36,000  Level Moncton Center
03:27AM 49.9667 -63.0167 180° South 500 575 36,000  Level Moncton Center
03:28AM 49.8167 -63.0500 188° South 510 587 36,000  Level Moncton Center
03:29AM 49.6667 -63.0500 180° South 520 598 36,000  Level Moncton Center
03:30AM 49.5333 -63.0500 180° South 500 575 36,000  Level Moncton Center
03:31AM 49.4000 -63.0667 185° South 500 575 36,000  Level Moncton Center
03:32AM 49.2500 -63.0667 180° South 510 587 36,000  Level Moncton Center
03:33AM 49.1167 -63.0667 180° South 500 575 36,000  Level Moncton Center
03:34AM 48.9667 -63.1000 188° South 500 575 36,000  Level Moncton Center
03:35AM 48.8333 -63.1000 180° South 500 575 36,000  Level Moncton Center
03:36AM 48.7000 -63.1000 180° South 510 587 36,000  Level Moncton Center
03:37AM 48.5500 -63.1333 188° South 500 575 36,000  Level Moncton Center
03:38AM 48.4167 -63.1333 180° South 500 575 36,000  Level Moncton Center
03:39AM 48.2833 -63.1333 180° South 500 575 36,000  Level Moncton Center
03:40AM 48.1333 -63.1500 184° South 500 575 36,000  Level Moncton Center
03:41AM 48.0000 -63.1500 180° South 510 587 36,000  Level Moncton Center
03:42AM 47.8667 -63.1500 180° South 500 575 36,000  Level Moncton Center
03:43AM 47.7167 -63.1833 189° South 500 575 36,000  Level Moncton Center
03:44AM 47.5833 -63.1833 180° South 500 575 36,000  Level Moncton Center
03:45AM 47.4333 -63.1833 180° South 500 575 36,000  Level Moncton Center
03:46AM 47.3000 -63.1833 180° South 500 575 36,000 -240 Level Moncton Center
03:47AM 47.1500 -63.1833 180° South 500 575 35,600 -1,740 Descending Moncton Center
03:48AM 47.0000 -63.2167 189° South 490 564 32,600 -2,640 Descending Moncton Center
03:49AM 46.8667 -63.2167 180° South 500 575 30,400 -2,220 Descending Moncton Center
03:50AM 46.7333 -63.2167 180° South 480 552 28,200 -2,100 Descending Moncton Center
03:51AM 46.6000 -63.2333 185° South 470 541 26,300 -1,920 Descending Moncton Center
03:52AM 46.4833 -63.2333 180° South 460 529 24,400 -1,980 Descending Moncton Center
03:53AM 46.3500 -63.2500 185° South 450 518 22,400 -1,800 Descending Moncton Center
03:54AM 46.2333 -63.2667 186° South 440 506 20,800 -1,380 Descending Moncton Center
03:55AM 46.1167 -63.2667 180° South 410 472 19,700 -1,380 Descending Moncton Center
03:56AM 46.0167 -63.2667 180° South 390 449 18,100 -1,440 Descending Moncton Center
04:02AM 45.4550 -63.3110 180° South 9,000 -1,440 Descending FlightAware
04:03AM 45.3667 -63.3000 180° South 290 334 8,400 -900 Descending Moncton Center
04:04AM 45.2833 -63.3000 180° South 270 311 7,300 -1,200 Descending Moncton Center
04:05AM 45.2167 -63.3000 180° South 270 311 6,100 -900 Descending Moncton Center
04:06AM 45.1500 -63.3000 180° South 250 288 5,500 -900 Descending Moncton Center
04:07AM 45.0833 -63.3000 180° South 230 265 4,400 -1,020 Descending Moncton Center
04:08AM 45.0333 -63.3333 205° Southwest 200 230 3,500 -780 Descending Moncton Center
04:09AM 44.9833 -63.3833 215° Southwest 200 230 2,900 -840 Descending Moncton Center
04:10AM 44.9333 -63.4333 215° Southwest 190 219 1,900 -960 Descending Moncton Center
04:11AM 44.9000 -63.4833 227° Southwest 180 207 1,000 -780 Descending Moncton Center
04:12AM 44.8500 -63.5000 193° South 170 196 400 -600 Descending Moncton Center